Time;durP1;ratioP1;P1;durP2;ratioP2;P2;SDS_P1;SDS_P2;PMS_P1;PMS_P2;Temp;Humidity;BMP_temperature;BMP_pressure;BME280_temperature;BME280_humidity;BME280_pressure;Samples;Min_cycle;Max_cycle;Signal;HPM_P1;HPM_P2
2023/04/23 00:01:38;;;;;;;;;;;7.80;99.90;;;;;;4973545;28;19965;-64
2023/04/23 00:04:07;;;;;;;;;;;7.80;99.90;;;;;;4987060;28;19918;-64
2023/04/23 00:06:34;;;;;;;;;;;7.80;99.90;;;;;;4984898;28;19922;-64
2023/04/23 00:09:00;;;;;;;;;;;7.80;99.90;;;;;;4994528;28;19969;-64
2023/04/23 00:11:26;;;;;;;;;;;7.80;99.90;;;;;;4974128;28;19949;-64
2023/04/23 00:13:51;;;;;;;;;;;7.70;99.90;;;;;;4976256;28;20009;-64
2023/04/23 00:16:18;;;;;;;;;;;7.70;99.90;;;;;;4964807;28;19926;-65
2023/04/23 00:18:44;;;;;;;;;;;7.70;99.90;;;;;;4980187;28;20004;-62
2023/04/23 00:21:09;;;;;;;;;;;7.70;99.90;;;;;;4967329;28;20503;-65
2023/04/23 00:23:35;;;;;;;;;;;7.70;99.90;;;;;;4967782;28;19918;-63
2023/04/23 00:26:00;;;;;;;;;;;7.70;99.90;;;;;;4994177;28;19957;-64
2023/04/23 00:28:26;;;;;;;;;;;7.70;99.90;;;;;;4988908;28;20036;-64
2023/04/23 00:30:51;;;;;;;;;;;7.60;99.90;;;;;;4991807;28;19921;-64
2023/04/23 00:33:17;;;;;;;;;;;7.60;99.90;;;;;;4984656;28;19918;-64
2023/04/23 00:35:42;;;;;;;;;;;7.50;99.90;;;;;;4954447;28;19929;-65
2023/04/23 00:38:08;;;;;;;;;;;7.50;99.90;;;;;;4978515;28;19921;-64
2023/04/23 00:40:33;;;;;;;;;;;7.50;99.90;;;;;;4982799;28;19917;-64
2023/04/23 00:42:59;;;;;;;;;;;7.50;99.90;;;;;;4990448;28;19917;-64
2023/04/23 00:45:25;;;;;;;;;;;7.50;99.90;;;;;;4992897;28;20012;-65
2023/04/23 00:47:52;;;;;;;;;;;7.50;99.90;;;;;;4985345;28;20004;-64
2023/04/23 00:50:17;;;;;;;;;;;7.60;99.90;;;;;;4993834;28;19925;-65
2023/04/23 00:52:43;;;;;;;;;;;7.60;99.90;;;;;;4985881;28;19917;-64
2023/04/23 00:55:08;;;;;;;;;;;7.60;99.90;;;;;;4987589;28;19921;-64
2023/04/23 00:57:35;;;;;;;;;;;7.70;99.90;;;;;;4985104;28;20328;-64
2023/04/23 01:00:00;;;;;;;;;;;7.70;99.90;;;;;;4991166;28;20012;-64
2023/04/23 01:02:28;;;;;;;;;;;7.70;99.90;;;;;;4982915;28;20052;-64
2023/04/23 01:04:54;;;;;;;;;;;7.70;99.90;;;;;;4984921;28;19918;-64
2023/04/23 01:07:20;;;;;;;;;;;7.70;99.90;;;;;;4993341;28;19940;-64
2023/04/23 01:09:45;;;;;;;;;;;7.70;99.90;;;;;;4989476;28;19918;-64
2023/04/23 01:12:12;;;;;;;;;;;7.70;99.90;;;;;;4992909;28;19961;-65
2023/04/23 01:14:38;;;;;;;;;;;7.70;99.90;;;;;;4985180;28;19940;-65
2023/04/23 01:17:04;;;;;;;;;;;7.70;99.90;;;;;;4975863;28;20443;-64
2023/04/23 01:19:30;;;;;;;;;;;7.70;99.90;;;;;;4988744;28;19918;-63
2023/04/23 01:21:58;;;;;;;;;;;7.70;99.90;;;;;;4983853;28;20000;-64
2023/04/23 01:24:24;;;;;;;;;;;7.70;99.90;;;;;;4991312;28;20013;-68
2023/04/23 01:26:49;;;;;;;;;;;7.70;99.90;;;;;;4983288;28;20008;-64
2023/04/23 01:29:15;;;;;;;;;;;7.70;99.90;;;;;;4983197;28;19917;-64
2023/04/23 01:31:40;;;;;;;;;;;7.80;99.90;;;;;;4993119;28;20435;-65
2023/04/23 01:34:06;;;;;;;;;;;7.80;99.90;;;;;;4986330;28;19972;-64
2023/04/23 01:36:33;;;;;;;;;;;7.80;99.90;;;;;;4984649;28;19925;-64
2023/04/23 01:38:58;;;;;;;;;;;7.80;99.90;;;;;;4984538;28;19918;-64
2023/04/23 01:41:24;;;;;;;;;;;7.80;99.90;;;;;;4993237;28;20307;-64
2023/04/23 01:43:49;;;;;;;;;;;7.80;99.90;;;;;;4983636;28;19918;-64
2023/04/23 01:46:15;;;;;;;;;;;7.80;99.90;;;;;;4984318;28;19921;-64
2023/04/23 01:48:40;;;;;;;;;;;7.80;99.90;;;;;;4992543;28;19925;-64
2023/04/23 01:51:07;;;;;;;;;;;7.80;99.90;;;;;;4987079;28;20364;-64
2023/04/23 01:53:33;;;;;;;;;;;7.70;99.90;;;;;;4991299;28;19921;-65
2023/04/23 01:55:59;;;;;;;;;;;7.70;99.90;;;;;;4984254;28;20005;-64
2023/04/23 01:58:25;;;;;;;;;;;7.60;99.90;;;;;;4992704;28;19918;-64
2023/04/23 02:00:50;;;;;;;;;;;7.60;99.90;;;;;;4978186;28;19917;-64
2023/04/23 02:03:16;;;;;;;;;;;7.60;99.90;;;;;;4978576;28;20359;-63
2023/04/23 02:05:41;;;;;;;;;;;7.60;99.90;;;;;;4973457;28;19924;-65
2023/04/23 02:08:07;;;;;;;;;;;7.60;99.90;;;;;;4985301;28;19918;-64
2023/04/23 02:10:32;;;;;;;;;;;7.60;99.90;;;;;;4991719;28;19922;-64
2023/04/23 02:12:58;;;;;;;;;;;7.50;99.90;;;;;;4977798;28;20273;-65
2023/04/23 02:15:24;;;;;;;;;;;7.40;99.90;;;;;;4985292;28;19917;-65
2023/04/23 02:17:51;;;;;;;;;;;7.40;99.90;;;;;;4989209;28;19928;-65
2023/04/23 02:20:16;;;;;;;;;;;7.30;99.90;;;;;;4965709;28;19964;-65
2023/04/23 02:22:42;;;;;;;;;;;7.30;99.90;;;;;;4989393;28;19925;-65
2023/04/23 02:25:08;;;;;;;;;;;7.20;99.90;;;;;;4988446;28;19933;-64
2023/04/23 02:27:34;;;;;;;;;;;7.20;99.90;;;;;;4996215;28;20339;-64
2023/04/23 02:29:59;;;;;;;;;;;7.20;99.90;;;;;;4982554;28;19922;-65
2023/04/23 02:32:25;;;;;;;;;;;7.20;99.90;;;;;;4985754;28;20319;-65
2023/04/23 02:34:50;;;;;;;;;;;7.20;99.90;;;;;;4996480;28;19918;-65
2023/04/23 02:37:16;;;;;;;;;;;7.20;99.90;;;;;;4988537;28;20405;-63
2023/04/23 02:39:41;;;;;;;;;;;7.10;99.90;;;;;;4990345;28;19940;-64
2023/04/23 02:42:07;;;;;;;;;;;7.10;99.90;;;;;;4988055;28;19972;-64
2023/04/23 02:44:32;;;;;;;;;;;7.10;99.90;;;;;;4996183;28;20277;-64
2023/04/23 02:46:58;;;;;;;;;;;7.00;99.90;;;;;;4989538;28;19918;-64
2023/04/23 02:49:24;;;;;;;;;;;7.00;99.90;;;;;;4992197;28;19928;-64
2023/04/23 02:51:50;;;;;;;;;;;7.00;99.90;;;;;;4989314;28;19925;-64
2023/04/23 02:54:15;;;;;;;;;;;7.00;99.90;;;;;;4986490;28;19918;-63
2023/04/23 02:56:41;;;;;;;;;;;7.00;99.90;;;;;;4987556;28;19929;-64
2023/04/23 02:59:07;;;;;;;;;;;6.90;99.90;;;;;;4987357;28;19917;-64
2023/04/23 03:01:32;;;;;;;;;;;6.90;99.90;;;;;;4988570;28;19926;-64
2023/04/23 03:03:58;;;;;;;;;;;6.90;99.90;;;;;;4987815;28;19955;-64
2023/04/23 03:06:24;;;;;;;;;;;6.90;99.90;;;;;;4987659;28;19917;-64
2023/04/23 03:08:49;;;;;;;;;;;6.90;99.90;;;;;;4990027;28;19918;-64
2023/04/23 03:11:15;;;;;;;;;;;6.90;99.90;;;;;;4965377;28;19992;-64
2023/04/23 03:13:40;;;;;;;;;;;6.80;99.90;;;;;;4989402;28;19918;-64
2023/04/23 03:16:07;;;;;;;;;;;6.80;99.90;;;;;;4976605;28;19968;-64
2023/04/23 03:18:33;;;;;;;;;;;6.70;99.90;;;;;;4975558;28;19929;-64
2023/04/23 03:20:58;;;;;;;;;;;6.70;99.90;;;;;;4986459;28;19917;-64
2023/04/23 03:23:24;;;;;;;;;;;6.80;99.90;;;;;;4993004;28;19917;-64
2023/04/23 03:25:49;;;;;;;;;;;6.90;99.90;;;;;;4975481;28;20292;-64
2023/04/23 03:28:15;;;;;;;;;;;6.90;99.90;;;;;;4979548;28;19918;-64
2023/04/23 03:30:40;;;;;;;;;;;6.90;99.90;;;;;;4985175;28;19984;-64
2023/04/23 03:33:06;;;;;;;;;;;7.00;99.90;;;;;;4984321;28;19923;-64
2023/04/23 03:35:31;;;;;;;;;;;7.00;99.90;;;;;;4976205;28;19918;-64
2023/04/23 03:37:57;;;;;;;;;;;7.00;99.90;;;;;;4995074;28;19921;-64
2023/04/23 03:40:22;;;;;;;;;;;7.00;99.90;;;;;;4982324;28;20514;-64
2023/04/23 03:42:48;;;;;;;;;;;6.90;99.90;;;;;;4985342;28;20027;-64
2023/04/23 03:45:15;;;;;;;;;;;6.90;99.90;;;;;;4986825;28;20004;-64
2023/04/23 03:47:41;;;;;;;;;;;6.70;99.90;;;;;;4982969;28;19922;-64
2023/04/23 03:50:07;;;;;;;;;;;6.60;99.90;;;;;;4990737;28;20299;-64
2023/04/23 03:52:33;;;;;;;;;;;6.50;99.90;;;;;;4987609;28;19969;-65
2023/04/23 03:54:59;;;;;;;;;;;6.60;99.90;;;;;;4997244;23;20395;-65
2023/04/23 03:57:24;;;;;;;;;;;6.70;99.90;;;;;;4965341;28;19957;-65
2023/04/23 03:59:50;;;;;;;;;;;6.80;99.90;;;;;;4955605;29;19938;-65
2023/04/23 04:02:15;;;;;;;;;;;7.00;99.90;;;;;;4953259;28;19922;-64
2023/04/23 04:04:42;;;;;;;;;;;7.00;99.90;;;;;;4963935;28;20411;-65
2023/04/23 04:07:07;;;;;;;;;;;7.10;99.90;;;;;;4970820;28;19918;-64
2023/04/23 04:09:33;;;;;;;;;;;7.20;99.90;;;;;;4967289;28;19919;-64
2023/04/23 04:11:58;;;;;;;;;;;7.20;99.90;;;;;;4966434;28;20396;-65
2023/04/23 04:14:23;;;;;;;;;;;7.20;99.90;;;;;;4966711;28;19933;-65
2023/04/23 04:16:49;;;;;;;;;;;7.20;99.90;;;;;;4974934;28;19941;-65
2023/04/23 04:19:15;;;;;;;;;;;7.20;99.90;;;;;;4965977;28;19918;-64
2023/04/23 04:21:40;;;;;;;;;;;7.20;99.90;;;;;;4966650;28;19957;-65
2023/04/23 04:24:06;;;;;;;;;;;7.30;99.90;;;;;;4975069;28;19924;-64
2023/04/23 04:26:33;;;;;;;;;;;7.30;99.90;;;;;;4970358;28;19922;-65
2023/04/23 04:28:59;;;;;;;;;;;7.20;99.90;;;;;;4960623;28;19919;-65
2023/04/23 04:31:27;;;;;;;;;;;7.30;99.90;;;;;;4964432;28;19925;-64
2023/04/23 04:33:53;;;;;;;;;;;7.30;99.90;;;;;;4969988;28;19961;-65
2023/04/23 04:36:18;;;;;;;;;;;7.30;99.90;;;;;;4960788;28;20284;-64
2023/04/23 04:38:44;;;;;;;;;;;7.30;99.90;;;;;;4965983;28;19925;-64
2023/04/23 04:41:10;;;;;;;;;;;7.30;99.90;;;;;;4974594;28;20372;-65
2023/04/23 04:43:36;;;;;;;;;;;7.30;99.90;;;;;;4970013;28;20399;-64
2023/04/23 04:46:02;;;;;;;;;;;7.40;99.90;;;;;;4965095;28;20664;-64
2023/04/23 04:48:28;;;;;;;;;;;7.40;99.90;;;;;;4972768;28;19941;-64
2023/04/23 04:50:53;;;;;;;;;;;7.50;99.90;;;;;;4965533;28;20532;-64
2023/04/23 04:53:19;;;;;;;;;;;7.60;99.90;;;;;;4963054;28;19933;-65
2023/04/23 04:55:44;;;;;;;;;;;7.60;99.90;;;;;;4965653;28;19917;-65
2023/04/23 04:58:10;;;;;;;;;;;7.70;99.90;;;;;;4973744;28;19974;-64
2023/04/23 05:00:35;;;;;;;;;;;7.70;99.90;;;;;;4947225;28;19921;-64
2023/04/23 05:03:01;;;;;;;;;;;7.80;99.90;;;;;;4966397;28;19922;-64
2023/04/23 05:05:27;;;;;;;;;;;7.80;99.90;;;;;;4956349;28;20396;-65
2023/04/23 05:07:58;;;;;;;;;;;7.90;99.90;;;;;;4965207;28;19957;-64
2023/04/23 05:10:23;;;;;;;;;;;7.90;99.90;;;;;;4968151;28;20288;-65
2023/04/23 05:12:50;;;;;;;;;;;8.00;99.90;;;;;;4966808;28;20380;-65
2023/04/23 05:15:16;;;;;;;;;;;8.10;99.90;;;;;;4974359;28;19918;-66
2023/04/23 05:17:41;;;;;;;;;;;8.20;99.90;;;;;;4961053;28;19926;-65
2023/04/23 05:20:09;;;;;;;;;;;8.20;99.90;;;;;;4962337;28;19965;-65
2023/04/23 05:22:36;;;;;;;;;;;8.30;99.90;;;;;;4937883;29;19918;-64
2023/04/23 05:25:02;;;;;;;;;;;8.30;99.90;;;;;;4937952;29;20439;-64
2023/04/23 05:27:28;;;;;;;;;;;8.40;99.90;;;;;;4964635;28;19965;-65
2023/04/23 05:29:53;;;;;;;;;;;8.40;99.90;;;;;;4967529;28;19921;-65
2023/04/23 05:32:19;;;;;;;;;;;8.50;99.90;;;;;;4973956;28;20667;-65
2023/04/23 05:34:44;;;;;;;;;;;8.50;99.90;;;;;;4941604;28;19937;-65
2023/04/23 05:37:10;;;;;;;;;;;8.50;99.90;;;;;;4944373;28;19922;-65
2023/04/23 05:39:35;;;;;;;;;;;8.60;99.90;;;;;;4964960;28;19972;-65
2023/04/23 05:42:01;;;;;;;;;;;8.50;99.90;;;;;;4955652;28;20274;-64
2023/04/23 05:44:27;;;;;;;;;;;8.60;99.90;;;;;;4966385;28;20372;-64
2023/04/23 05:46:53;;;;;;;;;;;8.50;99.90;;;;;;4964630;28;19979;-64
2023/04/23 05:49:18;;;;;;;;;;;8.50;99.90;;;;;;4973453;28;20429;-64
2023/04/23 05:51:44;;;;;;;;;;;8.50;99.90;;;;;;4967078;28;19930;-65
2023/04/23 05:54:10;;;;;;;;;;;8.60;99.90;;;;;;4952496;29;19930;-64
2023/04/23 05:56:35;;;;;;;;;;;8.60;99.90;;;;;;4971903;28;19929;-65
2023/04/23 05:59:01;;;;;;;;;;;8.70;99.90;;;;;;4948182;28;19936;-65
2023/04/23 06:01:27;;;;;;;;;;;8.80;99.90;;;;;;4964107;28;19926;-64
2023/04/23 06:03:53;;;;;;;;;;;8.80;99.90;;;;;;4973412;28;20010;-64
2023/04/23 06:06:18;;;;;;;;;;;8.90;99.90;;;;;;4969778;28;20804;-65
2023/04/23 06:08:44;;;;;;;;;;;8.90;99.90;;;;;;4970908;28;19918;-64
2023/04/23 06:11:09;;;;;;;;;;;9.00;99.90;;;;;;4964474;28;19961;-64
2023/04/23 06:13:39;;;;;;;;;;;9.10;99.90;;;;;;4973536;28;19918;-64
2023/04/23 06:16:07;;;;;;;;;;;9.20;99.90;;;;;;4959722;28;20343;-65
2023/04/23 06:18:33;;;;;;;;;;;9.30;99.90;;;;;;4953551;28;19925;-65
2023/04/23 06:21:03;;;;;;;;;;;9.40;99.90;;;;;;4973126;28;19989;-64
2023/04/23 06:23:31;;;;;;;;;;;9.40;99.90;;;;;;4949591;28;19918;-65
2023/04/23 06:25:57;;;;;;;;;;;9.50;99.90;;;;;;4964009;28;19922;-65
2023/04/23 06:28:23;;;;;;;;;;;9.60;99.90;;;;;;4960823;28;19918;-65
2023/04/23 06:30:48;;;;;;;;;;;9.70;99.90;;;;;;4959466;28;20384;-64
2023/04/23 06:33:14;;;;;;;;;;;9.80;99.90;;;;;;4962363;28;19918;-65
2023/04/23 06:35:39;;;;;;;;;;;9.90;99.90;;;;;;4947526;28;19918;-65
2023/04/23 06:38:05;;;;;;;;;;;10.00;99.90;;;;;;4972380;28;19922;-64
2023/04/23 06:40:31;;;;;;;;;;;10.10;99.90;;;;;;4965824;28;19926;-64
2023/04/23 06:42:56;;;;;;;;;;;10.20;99.90;;;;;;4962944;28;19965;-65
2023/04/23 06:45:22;;;;;;;;;;;10.30;99.90;;;;;;4964550;28;19922;-64
2023/04/23 06:47:48;;;;;;;;;;;10.40;99.90;;;;;;4961161;28;19918;-64
2023/04/23 06:50:14;;;;;;;;;;;10.50;99.90;;;;;;4964318;28;19969;-65
2023/04/23 06:52:39;;;;;;;;;;;10.60;99.90;;;;;;4952019;29;19926;-64
2023/04/23 06:55:05;;;;;;;;;;;10.70;99.90;;;;;;4953073;29;19929;-65
2023/04/23 06:57:31;;;;;;;;;;;10.80;99.90;;;;;;4953510;28;19922;-65
2023/04/23 06:59:56;;;;;;;;;;;10.80;99.90;;;;;;4968271;28;19925;-65
2023/04/23 07:02:22;;;;;;;;;;;10.90;99.90;;;;;;4973760;28;20028;-64
2023/04/23 07:04:47;;;;;;;;;;;10.90;99.90;;;;;;4972184;28;19945;-64
2023/04/23 07:07:13;;;;;;;;;;;10.90;99.90;;;;;;4968852;28;19918;-65
2023/04/23 07:09:38;;;;;;;;;;;11.00;99.90;;;;;;4967542;28;20381;-64
2023/04/23 07:12:03;;;;;;;;;;;11.00;99.90;;;;;;4976232;28;19925;-65
2023/04/23 07:14:29;;;;;;;;;;;11.10;99.90;;;;;;4949240;28;19957;-65
2023/04/23 07:16:55;;;;;;;;;;;11.20;99.90;;;;;;4954856;29;19923;-65
2023/04/23 07:19:20;;;;;;;;;;;11.20;99.90;;;;;;4963175;28;19941;-64
2023/04/23 07:21:45;;;;;;;;;;;11.20;99.90;;;;;;4962945;28;20022;-65
2023/04/23 07:24:11;;;;;;;;;;;11.10;99.90;;;;;;4966294;28;20008;-64
2023/04/23 07:26:36;;;;;;;;;;;11.00;99.90;;;;;;4956913;28;20395;-64
2023/04/23 07:29:03;;;;;;;;;;;11.00;99.90;;;;;;4969612;28;19922;-66
2023/04/23 07:31:28;;;;;;;;;;;11.10;99.90;;;;;;4967007;28;19965;-65
2023/04/23 07:33:55;;;;;;;;;;;11.10;99.90;;;;;;4963448;28;19961;-65
2023/04/23 07:36:20;;;;;;;;;;;11.10;99.90;;;;;;4970701;28;19944;-64
2023/04/23 07:38:46;;;;;;;;;;;11.10;99.90;;;;;;4963854;28;20376;-64
2023/04/23 07:41:11;;;;;;;;;;;11.30;99.90;;;;;;4964243;28;20396;-64
2023/04/23 07:43:37;;;;;;;;;;;11.30;99.90;;;;;;4965071;28;20006;-64
2023/04/23 07:46:03;;;;;;;;;;;11.40;99.90;;;;;;4963221;28;20004;-64
2023/04/23 07:48:29;;;;;;;;;;;11.50;99.90;;;;;;4960544;28;20431;-65
2023/04/23 07:50:55;;;;;;;;;;;11.50;99.90;;;;;;4967288;28;19943;-65
2023/04/23 07:53:20;;;;;;;;;;;11.70;99.90;;;;;;4974583;28;20273;-65
2023/04/23 07:55:46;;;;;;;;;;;11.70;99.90;;;;;;4967494;28;19918;-64
2023/04/23 07:58:11;;;;;;;;;;;11.80;99.90;;;;;;4963556;28;20050;-65
2023/04/23 08:00:37;;;;;;;;;;;11.80;99.90;;;;;;4974930;28;19961;-65
2023/04/23 08:03:02;;;;;;;;;;;11.90;99.90;;;;;;4975187;28;19926;-65
2023/04/23 08:05:28;;;;;;;;;;;11.90;99.90;;;;;;4959435;28;19922;-65
2023/04/23 08:07:53;;;;;;;;;;;12.00;99.90;;;;;;4962793;28;19972;-65
2023/04/23 08:10:19;;;;;;;;;;;12.10;99.90;;;;;;4971886;28;20114;-65
2023/04/23 08:12:44;;;;;;;;;;;12.20;99.90;;;;;;4954857;28;20376;-65
2023/04/23 08:15:10;;;;;;;;;;;12.20;99.90;;;;;;4963587;28;20391;-65
2023/04/23 08:17:36;;;;;;;;;;;12.20;99.90;;;;;;4973912;28;19922;-65
2023/04/23 08:20:02;;;;;;;;;;;12.30;99.90;;;;;;4971446;28;19933;-65
2023/04/23 08:22:28;;;;;;;;;;;12.40;99.90;;;;;;4966149;28;19953;-65
2023/04/23 08:24:53;;;;;;;;;;;12.50;99.90;;;;;;4966685;28;20364;-65
2023/04/23 08:27:19;;;;;;;;;;;12.60;99.90;;;;;;4970429;28;19973;-64
2023/04/23 08:29:45;;;;;;;;;;;12.60;99.90;;;;;;4967090;28;20020;-65
2023/04/23 08:32:10;;;;;;;;;;;12.70;99.90;;;;;;4966163;28;19976;-65
2023/04/23 08:34:36;;;;;;;;;;;12.80;99.90;;;;;;4975148;28;19918;-65
2023/04/23 08:37:01;;;;;;;;;;;12.90;99.90;;;;;;4964794;28;19926;-65
2023/04/23 08:39:27;;;;;;;;;;;12.90;99.90;;;;;;4969334;28;20273;-65
2023/04/23 08:41:53;;;;;;;;;;;12.90;99.90;;;;;;4968227;28;19921;-64
2023/04/23 08:44:23;;;;;;;;;;;13.20;99.90;;;;;;4968901;28;20439;-65
2023/04/23 08:46:49;;;;;;;;;;;13.10;99.90;;;;;;4963864;28;19922;-65
2023/04/23 08:49:16;;;;;;;;;;;13.20;99.90;;;;;;4965535;28;19917;-65
2023/04/23 08:51:45;;;;;;;;;;;13.30;99.90;;;;;;4974046;28;19961;-65
2023/04/23 08:54:13;;;;;;;;;;;13.40;99.90;;;;;;4969552;28;19922;-65
2023/04/23 08:56:39;;;;;;;;;;;13.40;99.90;;;;;;4965298;28;19926;-65
2023/04/23 08:59:06;;;;;;;;;;;13.50;99.90;;;;;;4973968;28;20293;-65
2023/04/23 09:01:32;;;;;;;;;;;13.50;99.90;;;;;;4949498;28;19919;-65
2023/04/23 09:03:59;;;;;;;;;;;13.80;99.90;;;;;;4968187;28;19917;-65
2023/04/23 09:06:25;;;;;;;;;;;13.70;99.90;;;;;;4947019;28;20376;-65
2023/04/23 09:08:51;;;;;;;;;;;13.80;99.90;;;;;;4952685;28;19918;-65
2023/04/23 09:11:17;;;;;;;;;;;13.90;99.90;;;;;;4968449;28;19918;-65
2023/04/23 09:13:43;;;;;;;;;;;14.10;99.90;;;;;;4963973;28;20396;-66
2023/04/23 09:16:09;;;;;;;;;;;14.20;99.90;;;;;;4973731;28;20012;-65
2023/04/23 09:18:35;;;;;;;;;;;14.30;99.90;;;;;;4969354;28;19930;-65
2023/04/23 09:21:02;;;;;;;;;;;14.40;99.90;;;;;;4964900;28;19929;-65
2023/04/23 09:23:30;;;;;;;;;;;14.40;99.90;;;;;;4964869;28;19918;-65
2023/04/23 09:25:56;;;;;;;;;;;14.70;99.90;;;;;;4956646;28;20004;-65
2023/04/23 09:28:32;;;;;;;;;;;14.90;99.90;;;;;;4970192;28;20313;-65
2023/04/23 09:30:58;;;;;;;;;;;14.90;99.90;;;;;;4963589;28;19918;-66
2023/04/23 09:33:23;;;;;;;;;;;15.20;99.90;;;;;;4970757;28;19925;-65
2023/04/23 09:35:49;;;;;;;;;;;15.30;99.90;;;;;;4960624;28;20283;-65
2023/04/23 09:38:14;;;;;;;;;;;15.40;99.90;;;;;;4964921;28;19922;-65
2023/04/23 09:40:40;;;;;;;;;;;15.70;99.90;;;;;;4973433;28;20191;-65
2023/04/23 09:43:09;;;;;;;;;;;15.90;99.90;;;;;;4967514;28;19921;-65
2023/04/23 09:45:34;;;;;;;;;;;15.70;99.90;;;;;;4962577;28;20388;-65
2023/04/23 09:48:00;;;;;;;;;;;15.70;99.90;;;;;;4964501;28;20020;-66
2023/04/23 09:50:37;;;;;;;;;;;16.00;99.90;;;;;;4955965;28;19993;-66
2023/04/23 09:53:03;;;;;;;;;;;15.90;99.90;;;;;;4963607;28;19924;-66
2023/04/23 09:55:39;;;;;;;;;;;15.80;99.90;;;;;;4991964;23;20387;-65
2023/04/23 09:58:05;;;;;;;;;;;15.90;99.90;;;;;;4973457;28;19922;-64
2023/04/23 10:00:32;;;;;;;;;;;16.20;99.90;;;;;;4959565;28;20323;-64
2023/04/23 10:02:58;;;;;;;;;;;16.30;99.90;;;;;;4943187;28;19938;-64
2023/04/23 10:05:23;;;;;;;;;;;16.40;99.90;;;;;;4959730;28;20343;-65
2023/04/23 10:07:49;;;;;;;;;;;16.30;99.90;;;;;;4957090;28;19929;-64
2023/04/23 10:10:15;;;;;;;;;;;16.40;99.90;;;;;;4940794;28;19921;-64
2023/04/23 10:12:44;;;;;;;;;;;16.70;99.90;;;;;;4962089;28;19922;-65
2023/04/23 10:15:11;;;;;;;;;;;16.90;99.90;;;;;;4960003;28;20332;-65
2023/04/23 10:17:36;;;;;;;;;;;17.00;99.90;;;;;;4954812;28;20288;-65
2023/04/23 10:20:02;;;;;;;;;;;17.30;99.90;;;;;;4959557;28;20384;-65
2023/04/23 10:22:29;;;;;;;;;;;17.30;99.90;;;;;;4962117;28;19999;-65
2023/04/23 10:24:57;;;;;;;;;;;17.30;99.90;;;;;;4960560;28;19992;-65
2023/04/23 10:27:27;;;;;;;;;;;17.50;99.90;;;;;;4959012;28;19922;-65
2023/04/23 10:29:53;;;;;;;;;;;17.30;99.90;;;;;;4954682;28;19997;-65
2023/04/23 10:32:19;;;;;;;;;;;17.40;99.90;;;;;;4952118;28;20384;-65
2023/04/23 10:34:45;;;;;;;;;;;17.40;99.90;;;;;;4949176;28;19926;-65
2023/04/23 10:37:11;;;;;;;;;;;17.40;99.90;;;;;;4960794;28;19922;-65
2023/04/23 10:39:37;;;;;;;;;;;17.50;99.90;;;;;;4955296;28;19926;-65
2023/04/23 10:42:03;;;;;;;;;;;17.60;99.90;;;;;;4961432;28;19918;-65
2023/04/23 10:44:35;;;;;;;;;;;17.00;99.90;;;;;;4965222;28;20304;-66
2023/04/23 10:47:01;;;;;;;;;;;16.80;99.90;;;;;;4961874;28;19922;-65
2023/04/23 10:49:30;;;;;;;;;;;16.80;99.90;;;;;;4951815;28;19926;-65
2023/04/23 10:52:00;;;;;;;;;;;17.00;99.90;;;;;;4954610;28;20380;-65
2023/04/23 10:54:32;;;;;;;;;;;17.10;99.90;;;;;;4963077;28;20459;-65
2023/04/23 10:57:02;;;;;;;;;;;17.00;99.90;;;;;;4973464;28;19926;-65
2023/04/23 10:59:29;;;;;;;;;;;17.30;99.90;;;;;;4955613;28;19922;-65
2023/04/23 11:01:55;;;;;;;;;;;17.50;99.90;;;;;;4960596;28;20311;-65
2023/04/23 11:04:30;;;;;;;;;;;17.70;99.90;;;;;;4968711;28;20395;-65
2023/04/23 11:06:57;;;;;;;;;;;17.30;99.90;;;;;;4963929;28;19918;-65
2023/04/23 11:09:30;;;;;;;;;;;17.10;99.90;;;;;;4966324;28;19922;-65
2023/04/23 11:11:56;;;;;;;;;;;16.90;99.90;;;;;;4967885;28;19922;-65
2023/04/23 11:14:40;;;;;;;;;;;16.90;99.90;;;;;;4964223;28;19929;-65
2023/04/23 11:17:05;;;;;;;;;;;16.90;99.90;;;;;;4964876;28;19925;-65
2023/04/23 11:19:35;;;;;;;;;;;16.70;99.90;;;;;;4964292;28;20320;-65
2023/04/23 11:22:05;;;;;;;;;;;16.90;99.90;;;;;;4973335;28;19944;-65
2023/04/23 11:24:32;;;;;;;;;;;17.10;99.90;;;;;;4970689;28;19922;-65
2023/04/23 11:26:58;;;;;;;;;;;17.50;99.90;;;;;;4967484;28;20006;-64
2023/04/23 11:29:24;;;;;;;;;;;17.40;99.90;;;;;;4961942;28;19923;-66
2023/04/23 11:31:50;;;;;;;;;;;17.20;99.90;;;;;;4964247;28;19940;-65
2023/04/23 11:34:16;;;;;;;;;;;17.00;99.90;;;;;;4964343;28;19996;-65
2023/04/23 11:36:42;;;;;;;;;;;17.20;99.90;;;;;;4961098;28;19926;-65
2023/04/23 11:39:09;;;;;;;;;;;17.10;99.90;;;;;;4953558;29;19938;-65
2023/04/23 11:41:35;;;;;;;;;;;17.00;99.90;;;;;;4949800;28;20360;-65
2023/04/23 11:44:00;;;;;;;;;;;17.00;99.90;;;;;;4965591;28;20037;-66
2023/04/23 11:46:26;;;;;;;;;;;16.90;99.90;;;;;;4969489;28;19961;-65
2023/04/23 11:48:51;;;;;;;;;;;17.10;99.90;;;;;;4962603;28;21393;-66
2023/04/23 11:51:17;;;;;;;;;;;17.30;99.90;;;;;;4942948;28;19925;-65
2023/04/23 11:53:46;;;;;;;;;;;17.30;99.60;;;;;;4960744;28;19928;-66
2023/04/23 11:56:11;;;;;;;;;;;17.40;99.90;;;;;;4961653;28;19918;-65
2023/04/23 11:58:36;;;;;;;;;;;17.50;99.90;;;;;;4960749;28;19989;-65
2023/04/23 12:01:02;;;;;;;;;;;17.80;99.90;;;;;;4964484;28;19929;-65
2023/04/23 12:03:29;;;;;;;;;;;18.10;99.90;;;;;;4969493;28;19922;-66
2023/04/23 12:05:55;;;;;;;;;;;18.00;99.30;;;;;;4946146;28;20013;-65
2023/04/23 12:08:20;;;;;;;;;;;18.40;99.90;;;;;;4963343;28;19996;-64
2023/04/23 12:10:46;;;;;;;;;;;18.50;98.80;;;;;;4963552;28;19964;-64
2023/04/23 12:13:20;;;;;;;;;;;18.30;97.90;;;;;;4964989;28;19918;-64
2023/04/23 12:15:46;;;;;;;;;;;18.40;99.90;;;;;;4942441;28;19922;-64
2023/04/23 12:18:12;;;;;;;;;;;18.50;99.00;;;;;;4964559;28;19929;-64
2023/04/23 12:20:39;;;;;;;;;;;18.50;98.00;;;;;;4972560;28;20300;-65
2023/04/23 12:23:05;;;;;;;;;;;18.60;97.70;;;;;;4964032;28;19982;-64
2023/04/23 12:25:34;;;;;;;;;;;18.40;97.00;;;;;;4961164;28;19918;-64
2023/04/23 12:28:00;;;;;;;;;;;18.40;98.40;;;;;;4963365;28;19918;-64
2023/04/23 12:30:29;;;;;;;;;;;18.20;97.30;;;;;;4962241;28;19933;-64
2023/04/23 12:33:02;;;;;;;;;;;18.20;96.80;;;;;;4930139;28;20011;-64
2023/04/23 12:35:41;;;;;;;;;;;18.20;99.40;;;;;;4965367;28;20272;-64
2023/04/23 12:38:06;;;;;;;;;;;18.10;97.50;;;;;;4962497;28;20020;-64
2023/04/23 12:40:32;;;;;;;;;;;18.30;97.70;;;;;;4968908;28;20357;-64
2023/04/23 12:42:58;;;;;;;;;;;18.30;96.70;;;;;;4967823;28;19926;-64
2023/04/23 12:45:23;;;;;;;;;;;18.10;98.10;;;;;;4963841;28;19973;-64
2023/04/23 12:47:48;;;;;;;;;;;18.20;97.70;;;;;;4968570;28;20006;-65
2023/04/23 12:50:14;;;;;;;;;;;18.10;98.40;;;;;;4962449;28;19945;-65
2023/04/23 12:52:41;;;;;;;;;;;18.00;98.50;;;;;;4965200;28;19918;-64
2023/04/23 12:55:06;;;;;;;;;;;17.90;97.90;;;;;;4965212;28;20336;-64
2023/04/23 12:57:32;;;;;;;;;;;17.90;98.00;;;;;;4960796;28;19976;-64
2023/04/23 12:59:57;;;;;;;;;;;18.00;97.30;;;;;;4963892;28;19922;-64
2023/04/23 13:02:24;;;;;;;;;;;18.10;98.20;;;;;;4964215;28;20001;-65
2023/04/23 13:04:49;;;;;;;;;;;18.50;99.20;;;;;;4956773;28;19964;-64
2023/04/23 13:07:15;;;;;;;;;;;18.70;99.20;;;;;;4966642;28;19953;-64
2023/04/23 13:09:41;;;;;;;;;;;18.90;99.50;;;;;;4965563;28;19922;-65
2023/04/23 13:12:06;;;;;;;;;;;18.90;99.30;;;;;;4963345;28;19988;-65
2023/04/23 13:14:32;;;;;;;;;;;18.70;97.70;;;;;;4966368;28;19925;-64
2023/04/23 13:16:57;;;;;;;;;;;18.70;99.20;;;;;;4956232;28;19961;-64
2023/04/23 13:19:23;;;;;;;;;;;18.60;97.30;;;;;;4973775;28;19927;-64
2023/04/23 13:21:48;;;;;;;;;;;18.70;98.40;;;;;;4961695;28;19925;-65
2023/04/23 13:24:14;;;;;;;;;;;18.70;97.00;;;;;;4963822;28;20005;-65
2023/04/23 13:26:39;;;;;;;;;;;18.80;99.90;;;;;;4969515;28;19926;-64
2023/04/23 13:29:05;;;;;;;;;;;19.10;99.90;;;;;;4951951;28;19973;-65
2023/04/23 13:31:30;;;;;;;;;;;19.20;99.90;;;;;;4971361;28;19918;-65
2023/04/23 13:33:56;;;;;;;;;;;19.10;98.50;;;;;;4965506;28;20405;-65
2023/04/23 13:36:22;;;;;;;;;;;18.80;97.90;;;;;;4969198;28;19921;-64
2023/04/23 13:38:48;;;;;;;;;;;18.90;99.90;;;;;;4963757;28;19973;-65
2023/04/23 13:41:13;;;;;;;;;;;19.00;99.90;;;;;;4964603;28;19918;-64
2023/04/23 13:43:39;;;;;;;;;;;19.00;99.90;;;;;;4970398;28;19922;-64
2023/04/23 13:46:05;;;;;;;;;;;19.00;99.90;;;;;;4945601;28;19964;-65
2023/04/23 13:48:30;;;;;;;;;;;18.90;99.90;;;;;;4964339;28;19919;-64
2023/04/23 13:50:56;;;;;;;;;;;18.90;99.90;;;;;;4970608;28;19952;-64
2023/04/23 13:53:22;;;;;;;;;;;18.90;99.90;;;;;;4952112;28;19918;-64
2023/04/23 13:55:47;;;;;;;;;;;19.00;99.90;;;;;;4965421;28;19925;-65
2023/04/23 13:58:13;;;;;;;;;;;19.00;99.90;;;;;;4964900;28;19929;-62
2023/04/23 14:00:38;;;;;;;;;;;18.90;99.90;;;;;;4965707;28;19918;-62
2023/04/23 14:03:04;;;;;;;;;;;18.90;98.60;;;;;;4955101;28;19926;-62
2023/04/23 14:05:30;;;;;;;;;;;19.00;99.70;;;;;;4969328;28;19924;-62
2023/04/23 14:07:55;;;;;;;;;;;19.20;99.90;;;;;;4966115;28;20430;-62
2023/04/23 14:10:21;;;;;;;;;;;19.50;99.60;;;;;;4973138;28;19918;-62
2023/04/23 14:12:46;;;;;;;;;;;19.90;99.30;;;;;;4963129;28;20005;-62
2023/04/23 14:15:12;;;;;;;;;;;19.90;96.90;;;;;;4962480;28;20391;-62
2023/04/23 14:17:39;;;;;;;;;;;20.00;97.90;;;;;;4963544;28;19937;-63